Time;durP1;ratioP1;P1;durP2;ratioP2;P2;SDS_P1;SDS_P2;PMS_P1;PMS_P2;Temp;Humidity;BMP_temperature;BMP_pressure;BME280_temperature;BME280_humidity;BME280_pressure;Samples;Min_cycle;Max_cycle;Signal;HPM_P1;HPM_P2
2022/10/16 00:01:10;;;;;;;0.80;0.80;;;14.20;99.90;;;;;;5115981;28;20201;-90
2022/10/16 00:03:39;;;;;;;2.13;1.10;;;14.20;99.90;;;;;;5115370;28;20655;-86
2022/10/16 00:06:07;;;;;;;3.17;1.40;;;14.20;99.90;;;;;;5115647;28;20266;-86
2022/10/16 00:08:34;;;;;;;1.37;1.10;;;14.20;99.90;;;;;;5115475;28;20274;-84
2022/10/16 00:11:02;;;;;;;1.10;1.00;;;14.10;99.90;;;;;;5115360;28;20205;-86
2022/10/16 00:13:31;;;;;;;1.30;1.10;;;14.20;99.90;;;;;;5117068;28;20242;-87
2022/10/16 00:16:01;;;;;;;1.13;1.03;;;14.10;99.90;;;;;;5117875;28;20775;-86
2022/10/16 00:18:29;;;;;;;5.47;1.23;;;14.20;99.90;;;;;;5114212;28;20215;-87
2022/10/16 00:21:03;;;;;;;1.63;1.37;;;14.10;99.90;;;;;;5115474;28;20204;-88
2022/10/16 00:23:32;;;;;;;1.00;1.00;;;14.10;99.90;;;;;;5115025;28;20278;-86
2022/10/16 00:26:02;;;;;;;2.30;0.90;;;14.10;99.90;;;;;;5115356;27;20201;-85
2022/10/16 00:28:29;;;;;;;1.27;1.17;;;14.10;99.90;;;;;;5115430;28;20215;-88
2022/10/16 00:30:57;;;;;;;1.30;1.20;;;14.10;99.90;;;;;;5115267;28;20440;-88
2022/10/16 00:33:25;;;;;;;1.23;0.97;;;14.10;99.90;;;;;;5115374;27;20205;-86
2022/10/16 00:35:52;;;;;;;1.53;1.03;;;14.10;99.90;;;;;;5114978;28;20220;-89
2022/10/16 00:38:19;;;;;;;1.87;1.10;;;14.10;99.90;;;;;;5114374;28;20208;-87
2022/10/16 00:40:46;;;;;;;1.20;1.10;;;14.10;99.90;;;;;;5115320;28;20192;-85
2022/10/16 00:43:33;;;;;;;1.60;1.10;;;14.10;99.90;;;;;;5115057;28;20192;-84
2022/10/16 00:46:05;;;;;;;2.80;1.30;;;14.10;99.90;;;;;;5114603;28;20195;-85
2022/10/16 00:48:39;;;;;;;2.50;1.40;;;14.00;99.90;;;;;;5114890;28;20208;-87
2022/10/16 00:51:08;;;;;;;1.90;1.13;;;14.00;99.90;;;;;;5114964;28;20187;-85
2022/10/16 00:53:41;;;;;;;2.33;1.20;;;14.00;99.90;;;;;;5114547;28;20196;-86
2022/10/16 00:56:08;;;;;;;1.43;0.93;;;14.00;99.90;;;;;;5114666;28;20694;-88
2022/10/16 00:58:38;;;;;;;1.83;1.20;;;14.00;99.90;;;;;;5114183;28;20216;-87
2022/10/16 01:01:04;;;;;;;1.93;1.20;;;14.00;99.90;;;;;;5114959;28;20195;-86
2022/10/16 01:03:33;;;;;;;1.10;1.00;;;13.90;99.90;;;;;;5120300;28;20718;-86
2022/10/16 01:06:24;;;;;;;1.20;1.10;;;14.00;99.90;;;;;;5114359;28;20188;-89
2022/10/16 01:09:17;;;;;;;1.73;0.80;;;13.90;99.90;;;;;;5114490;28;20196;-88
2022/10/16 01:11:55;;;;;;;1.50;1.20;;;13.90;99.90;;;;;;5114834;28;20208;-89
2022/10/16 01:14:33;;;;;;;3.37;1.13;;;13.90;99.90;;;;;;5114650;28;20192;-88
2022/10/16 01:17:07;;;;;;;1.27;1.17;;;14.00;99.90;;;;;;5114364;28;20721;-86
2022/10/16 01:20:02;;;;;;;1.60;1.20;;;13.90;99.90;;;;;;5114895;28;20204;-89
2022/10/16 01:22:40;;;;;;;1.70;1.10;;;13.80;99.90;;;;;;5114713;28;20204;-86
2022/10/16 01:25:12;;;;;;;1.90;1.20;;;13.90;99.90;;;;;;5114585;28;20192;-86
2022/10/16 01:27:47;;;;;;;1.30;1.10;;;13.80;99.90;;;;;;5114757;27;20208;-89
2022/10/16 01:30:18;;;;;;;1.20;1.10;;;13.80;99.90;;;;;;5118215;28;20188;-89
2022/10/16 01:32:51;;;;;;;1.55;1.40;;;13.80;99.90;;;;;;5117346;28;20460;-89
2022/10/16 01:35:23;;;;;;;1.57;1.10;;;13.90;99.90;;;;;;5118537;28;20204;-88
2022/10/16 01:37:54;;;;;;;1.60;1.40;;;13.90;99.90;;;;;;5119012;28;20195;-85
2022/10/16 01:40:23;;;;;;;1.17;1.10;;;13.80;99.90;;;;;;5119337;28;20207;-89
2022/10/16 01:42:55;;;;;;;3.60;1.40;;;13.80;99.90;;;;;;5119024;28;20641;-88
2022/10/16 01:45:26;;;;;;;1.37;1.23;;;13.80;99.90;;;;;;5118664;27;20185;-90
2022/10/16 01:47:54;;;;;;;1.23;1.20;;;13.80;99.90;;;;;;5119132;28;20216;-90
2022/10/16 01:50:36;;;;;;;1.10;1.10;;;13.80;99.90;;;;;;5119354;28;20200;-88
2022/10/16 01:53:04;;;;;;;3.07;1.50;;;13.90;99.90;;;;;;5116475;28;20204;-88
2022/10/16 01:55:44;;;;;;;1.77;1.50;;;13.80;99.90;;;;;;5117966;28;20243;-88
2022/10/16 01:58:14;;;;;;;2.73;1.47;;;13.70;99.90;;;;;;5117077;27;20228;-87
2022/10/16 02:00:45;;;;;;;5.73;1.47;;;13.80;99.90;;;;;;5117486;28;20204;-84
2022/10/16 02:03:14;;;;;;;2.43;1.37;;;13.70;99.90;;;;;;5117462;28;20349;-89
2022/10/16 02:05:47;;;;;;;2.07;1.50;;;13.90;99.90;;;;;;5118129;28;20208;-87
2022/10/16 02:08:20;;;;;;;1.73;1.63;;;13.80;99.90;;;;;;5117436;28;20674;-90
2022/10/16 02:10:47;;;;;;;2.97;1.37;;;13.90;99.90;;;;;;5118048;28;20203;-90
2022/10/16 02:13:26;;;;;;;3.30;1.47;;;13.80;99.90;;;;;;5120030;28;20189;-88
2022/10/16 02:15:53;;;;;;;2.37;1.47;;;13.70;99.90;;;;;;5119956;28;20224;-85
2022/10/16 02:18:29;;;;;;;1.47;1.40;;;13.80;99.90;;;;;;5117446;28;20209;-86
2022/10/16 02:20:59;;;;;;;2.50;1.57;;;13.80;99.90;;;;;;5117376;28;20192;-88
2022/10/16 02:23:35;;;;;;;2.80;1.50;;;13.70;99.90;;;;;;5117450;28;20185;-90
2022/10/16 02:26:08;;;;;;;1.70;1.60;;;13.70;99.90;;;;;;5117596;27;20204;-90
2022/10/16 02:28:42;;;;;;;2.60;1.40;;;13.60;99.90;;;;;;5117027;28;20204;-87
2022/10/16 02:31:12;;;;;;;3.10;1.70;;;13.70;99.90;;;;;;5117229;28;20424;-84
2022/10/16 02:33:41;;;;;;;2.30;1.60;;;13.70;99.90;;;;;;5117597;28;20200;-89
2022/10/16 02:36:10;;;;;;;1.50;1.40;;;13.60;99.90;;;;;;5117231;28;20216;-85
2022/10/16 02:38:37;;;;;;;2.43;1.43;;;13.70;99.90;;;;;;5117053;28;20196;-86
2022/10/16 02:41:05;;;;;;;2.00;1.40;;;13.60;99.90;;;;;;5115929;27;20757;-89
2022/10/16 02:43:33;;;;;;;1.90;1.40;;;13.70;99.90;;;;;;5116691;28;20555;-85
2022/10/16 02:46:01;;;;;;;2.53;1.50;;;13.60;99.90;;;;;;5116851;28;20663;-85
2022/10/16 02:48:32;;;;;;;3.80;1.50;;;13.70;99.90;;;;;;5116581;28;20299;-85
2022/10/16 02:51:18;;;;;;;2.97;1.60;;;13.70;99.90;;;;;;5124488;27;20543;-86
2022/10/16 02:53:46;;;;;;;1.80;1.70;;;13.70;99.90;;;;;;5092087;28;20564;-90
2022/10/16 02:56:13;;;;;;;2.93;1.63;;;13.60;99.90;;;;;;5092114;28;20192;-90
2022/10/16 02:58:41;;;;;;;4.93;1.70;;;13.60;99.90;;;;;;5092221;28;20221;-91
2022/10/16 03:01:16;;;;;;;3.70;1.80;;;13.60;99.90;;;;;;5092372;28;20197;-91
2022/10/16 03:03:44;;;;;;;1.80;1.40;;;13.60;99.90;;;;;;5095539;28;20189;-91
2022/10/16 03:06:11;;;;;;;3.73;1.70;;;13.60;99.90;;;;;;5095476;28;20675;-86
2022/10/16 03:08:40;;;;;;;2.90;1.80;;;13.60;99.90;;;;;;5091697;28;20201;-86
2022/10/16 03:11:07;;;;;;;5.07;1.90;;;13.60;99.90;;;;;;5090838;28;20229;-86
2022/10/16 03:13:36;;;;;;;6.77;2.30;;;13.60;99.90;;;;;;5091127;28;20555;-87
2022/10/16 03:16:06;;;;;;;1.80;1.50;;;13.60;99.90;;;;;;5091395;28;20212;-85
2022/10/16 03:18:33;;;;;;;2.67;1.80;;;13.60;99.90;;;;;;5091339;28;20548;-88
2022/10/16 03:21:02;;;;;;;1.70;1.57;;;13.60;99.90;;;;;;5091721;28;20201;-91
2022/10/16 03:23:32;;;;;;;4.43;2.00;;;13.60;99.90;;;;;;5091093;28;20190;-87
2022/10/16 03:26:01;;;;;;;2.00;1.90;;;13.60;99.90;;;;;;5090784;28;20204;-86
2022/10/16 03:28:28;;;;;;;1.63;1.53;;;13.60;99.90;;;;;;5090869;28;20555;-90
2022/10/16 03:30:55;;;;;;;2.40;2.10;;;13.60;99.90;;;;;;5090468;28;20443;-89
2022/10/16 03:33:22;;;;;;;3.00;1.70;;;13.60;99.90;;;;;;5091310;28;20192;-90
2022/10/16 03:35:53;;;;;;;3.30;1.80;;;13.60;99.90;;;;;;5091260;28;20193;-90
2022/10/16 03:38:21;;;;;;;2.50;1.77;;;13.60;99.90;;;;;;5090682;28;20221;-89
2022/10/16 03:40:48;;;;;;;2.77;1.90;;;13.60;99.90;;;;;;5090507;28;20641;-88
2022/10/16 03:43:19;;;;;;;1.63;1.53;;;13.60;99.90;;;;;;5090409;28;20201;-89
2022/10/16 03:45:46;;;;;;;3.67;1.87;;;13.60;99.90;;;;;;5090766;28;20205;-88
2022/10/16 03:48:12;;;;;;;2.23;1.97;;;13.70;99.90;;;;;;5090366;28;20191;-86
2022/10/16 03:50:39;;;;;;;2.73;1.87;;;13.70;99.90;;;;;;5090479;28;20229;-87
2022/10/16 03:53:12;;;;;;;3.07;1.83;;;13.60;99.90;;;;;;5090692;28;20630;-89
2022/10/16 03:55:39;;;;;;;8.30;1.87;;;13.60;99.90;;;;;;5090277;28;20197;-87
2022/10/16 03:58:06;;;;;;;2.90;2.00;;;13.60;99.90;;;;;;5090457;28;20710;-86
2022/10/16 04:00:34;;;;;;;4.47;1.97;;;13.60;99.90;;;;;;5088467;28;20212;-89
2022/10/16 04:03:01;;;;;;;4.00;2.20;;;13.60;99.90;;;;;;5076694;28;20684;-90
2022/10/16 04:05:34;;;;;;;1.97;1.83;;;13.60;99.90;;;;;;5076939;28;20202;-86
2022/10/16 04:08:07;;;;;;;3.93;2.30;;;13.60;99.90;;;;;;5077507;28;20205;-89
2022/10/16 04:10:34;;;;;;;3.40;2.00;;;13.60;99.90;;;;;;5076440;28;20711;-89
2022/10/16 04:13:04;;;;;;;1.90;1.80;;;13.60;99.90;;;;;;5077066;28;20676;-89
2022/10/16 04:15:31;;;;;;;4.87;2.30;;;13.60;99.90;;;;;;5077060;28;20212;-90
2022/10/16 04:18:02;;;;;;;7.63;2.40;;;13.60;99.90;;;;;;5076617;28;20656;-87
2022/10/16 04:20:29;;;;;;;2.53;2.33;;;13.60;99.90;;;;;;5079444;28;20213;-90
2022/10/16 04:23:03;;;;;;;3.07;2.73;;;13.60;99.90;;;;;;5076842;28;20298;-86
2022/10/16 04:25:36;;;;;;;5.13;2.53;;;13.60;99.90;;;;;;5076660;28;20679;-90
2022/10/16 04:28:02;;;;;;;2.27;2.17;;;13.50;99.90;;;;;;5077013;28;20200;-89
2022/10/16 04:30:29;;;;;;;3.30;2.33;;;13.60;99.90;;;;;;5076631;28;20208;-90
2022/10/16 04:32:56;;;;;;;4.00;2.47;;;13.60;99.90;;;;;;5076934;28;20576;-87
2022/10/16 04:35:30;;;;;;;4.00;1.97;;;13.50;99.90;;;;;;5077032;28;20193;-91
2022/10/16 04:37:58;;;;;;;3.30;2.30;;;13.50;99.90;;;;;;5076283;28;20209;-85
2022/10/16 04:40:25;;;;;;;2.60;2.13;;;13.50;99.90;;;;;;5076334;28;20190;-89
2022/10/16 04:42:52;;;;;;;3.10;2.20;;;13.50;99.90;;;;;;5076766;28;20194;-90
2022/10/16 04:45:19;;;;;;;2.47;2.27;;;13.50;99.90;;;;;;5076159;28;20285;-89
2022/10/16 04:47:45;;;;;;;3.13;1.90;;;13.50;99.90;;;;;;5076229;28;20190;-90
2022/10/16 04:50:12;;;;;;;4.27;2.47;;;13.40;99.90;;;;;;5076232;28;20224;-90
2022/10/16 04:52:46;;;;;;;4.10;2.20;;;13.50;99.90;;;;;;5076329;28;20194;-90
2022/10/16 04:55:16;;;;;;;6.13;2.50;;;13.50;99.90;;;;;;5074752;28;20285;-88
2022/10/16 04:57:43;;;;;;;2.93;1.90;;;13.50;99.90;;;;;;5078034;28;20292;-86
2022/10/16 05:00:11;;;;;;;4.00;2.13;;;13.50;99.90;;;;;;5076875;28;20531;-87
2022/10/16 05:02:38;;;;;;;3.67;2.50;;;13.40;99.90;;;;;;5072920;28;20259;-88
2022/10/16 05:05:08;;;;;;;3.30;2.40;;;13.60;99.90;;;;;;5075064;28;20205;-88
2022/10/16 05:07:35;;;;;;;2.50;2.30;;;13.50;99.90;;;;;;5075190;28;20212;-87
2022/10/16 05:10:11;;;;;;;2.30;2.10;;;13.40;99.90;;;;;;5076193;28;20259;-90
2022/10/16 05:12:41;;;;;;;3.57;2.03;;;13.40;99.90;;;;;;5074550;28;20197;-88
2022/10/16 05:15:10;;;;;;;2.73;2.00;;;13.40;99.90;;;;;;5076681;28;20205;-90
2022/10/16 05:17:38;;;;;;;2.83;1.93;;;13.30;99.90;;;;;;5076212;28;20197;-91
2022/10/16 05:20:06;;;;;;;2.50;2.00;;;13.30;99.90;;;;;;5076348;28;20197;-90
2022/10/16 05:22:33;;;;;;;2.53;1.97;;;13.30;99.90;;;;;;5076897;28;20555;-91
2022/10/16 05:25:01;;;;;;;3.20;1.83;;;13.40;99.90;;;;;;5076966;28;20197;-88
2022/10/16 05:27:29;;;;;;;2.97;2.07;;;13.30;99.90;;;;;;5076805;28;20198;-90
2022/10/16 05:29:56;;;;;;;2.30;2.00;;;13.40;99.90;;;;;;5075145;28;20212;-87
2022/10/16 05:32:22;;;;;;;3.13;2.23;;;13.30;99.90;;;;;;5075230;28;20213;-90
2022/10/16 05:34:49;;;;;;;2.50;2.13;;;13.30;99.90;;;;;;5075086;28;20272;-89
2022/10/16 05:37:16;;;;;;;5.57;2.17;;;13.40;99.90;;;;;;5074362;28;20197;-87
2022/10/16 05:39:48;;;;;;;3.17;2.60;;;13.30;99.90;;;;;;5075078;28;20642;-88
2022/10/16 05:42:17;;;;;;;6.47;2.50;;;13.30;99.90;;;;;;5075444;28;20205;-90
2022/10/16 05:44:45;;;;;;;3.03;2.70;;;13.30;99.90;;;;;;5075539;28;20210;-90
2022/10/16 05:47:13;;;;;;;3.00;2.03;;;13.30;99.90;;;;;;5075216;28;20660;-89
2022/10/16 05:49:40;;;;;;;6.00;2.60;;;13.40;99.90;;;;;;5075108;28;20263;-90
2022/10/16 05:52:13;;;;;;;2.73;2.03;;;13.30;99.90;;;;;;5058087;28;20206;-87
2022/10/16 05:54:46;;;;;;;3.70;2.63;;;13.30;99.90;;;;;;5054754;28;20202;-89
2022/10/16 05:57:12;;;;;;;2.70;2.30;;;13.40;99.90;;;;;;5055143;28;20202;-90
2022/10/16 05:59:39;;;;;;;3.83;2.33;;;13.50;99.90;;;;;;5055242;28;20226;-86
2022/10/16 06:02:12;;;;;;;3.63;2.20;;;13.40;99.90;;;;;;5057737;28;20203;-90
2022/10/16 06:04:39;;;;;;;4.70;2.33;;;13.40;99.90;;;;;;5054715;28;20202;-88
2022/10/16 06:07:06;;;;;;;4.70;2.77;;;13.50;99.90;;;;;;5054495;28;20190;-90
2022/10/16 06:09:36;;;;;;;4.00;2.27;;;13.50;99.90;;;;;;5054970;28;20197;-90
2022/10/16 06:12:10;;;;;;;5.10;2.17;;;13.60;99.90;;;;;;5054998;28;20226;-87
2022/10/16 06:14:37;;;;;;;4.90;2.10;;;13.60;99.90;;;;;;5054391;28;20201;-87
2022/10/16 06:17:04;;;;;;;2.60;2.10;;;13.60;99.90;;;;;;5054787;28;20190;-89
2022/10/16 06:19:32;;;;;;;3.07;2.20;;;13.60;99.90;;;;;;5054151;28;20198;-87
2022/10/16 06:22:00;;;;;;;3.07;2.00;;;13.50;99.90;;;;;;5054471;28;20558;-85
2022/10/16 06:24:29;;;;;;;4.53;2.30;;;13.50;99.90;;;;;;5054392;28;20194;-87
2022/10/16 06:26:55;;;;;;;2.47;2.23;;;13.60;99.90;;;;;;5054584;28;20202;-91
2022/10/16 06:29:23;;;;;;;5.57;2.87;;;13.60;99.90;;;;;;5054897;28;20203;-89
2022/10/16 06:31:50;;;;;;;4.90;2.50;;;13.60;99.90;;;;;;5054589;28;20584;-89
2022/10/16 06:34:17;;;;;;;2.70;2.13;;;13.60;99.90;;;;;;5054128;28;20189;-89
2022/10/16 06:36:45;;;;;;;3.40;2.30;;;13.60;99.90;;;;;;5053955;28;20717;-90
2022/10/16 06:39:12;;;;;;;5.17;2.07;;;13.60;99.90;;;;;;5053969;28;20210;-84
2022/10/16 06:41:39;;;;;;;5.37;2.50;;;13.70;99.90;;;;;;5054217;28;20198;-89
2022/10/16 06:44:07;;;;;;;4.73;2.30;;;13.60;99.90;;;;;;5053988;28;20209;-87
2022/10/16 06:46:36;;;;;;;2.73;2.40;;;13.60;99.90;;;;;;5053898;28;20285;-87
2022/10/16 06:49:03;;;;;;;2.50;2.30;;;13.60;99.90;;;;;;5053406;28;20647;-87
2022/10/16 06:51:31;;;;;;;3.93;2.60;;;13.60;99.90;;;;;;5053847;28;20241;-88
2022/10/16 06:54:01;;;;;;;4.50;2.70;;;13.50;99.90;;;;;;5054507;28;20201;-85
2022/10/16 06:56:29;;;;;;;4.63;2.30;;;13.40;99.90;;;;;;5054297;28;20198;-85
2022/10/16 06:58:56;;;;;;;2.77;2.57;;;13.40;99.90;;;;;;5054277;28;20222;-83
2022/10/16 07:01:24;;;;;;;3.67;2.73;;;13.40;99.90;;;;;;5063367;28;20217;-88
2022/10/16 07:03:51;;;;;;;4.50;2.20;;;13.50;99.90;;;;;;5073431;28;20197;-87
2022/10/16 07:06:20;;;;;;;4.57;2.60;;;13.50;99.90;;;;;;5073958;28;20197;-87
2022/10/16 07:08:47;;;;;;;5.70;2.90;;;13.50;99.90;;;;;;5075283;28;20197;-90
2022/10/16 07:11:19;;;;;;;3.67;2.50;;;13.50;99.90;;;;;;5073957;28;20243;-88
2022/10/16 07:13:49;;;;;;;5.57;2.87;;;13.60;99.90;;;;;;5074193;28;20200;-90
2022/10/16 07:16:20;;;;;;;5.37;2.20;;;13.60;99.90;;;;;;5075043;28;20216;-89
2022/10/16 07:18:48;;;;;;;2.37;2.07;;;13.60;99.90;;;;;;5075099;28;20197;-89
2022/10/16 07:21:17;;;;;;;3.10;1.70;;;13.70;99.90;;;;;;5078182;28;20202;-91
2022/10/16 07:23:46;;;;;;;3.37;2.17;;;13.70;99.90;;;;;;5077571;28;20590;-88
2022/10/16 07:26:13;;;;;;;2.40;2.20;;;13.80;99.90;;;;;;5075164;28;20546;-88
2022/10/16 07:28:44;;;;;;;4.07;2.50;;;13.90;99.90;;;;;;5083017;28;20249;-88
2022/10/16 07:31:12;;;;;;;3.17;2.30;;;14.00;99.90;;;;;;5086439;28;20229;-90
2022/10/16 07:33:41;;;;;;;4.47;2.30;;;13.90;99.90;;;;;;5084828;28;20210;-89
2022/10/16 07:36:09;;;;;;;3.40;2.37;;;14.00;99.90;;;;;;5086186;28;20205;-90
2022/10/16 07:38:35;;;;;;;4.72;3.40;;;14.00;99.90;;;;;;5089427;28;20427;-87
2022/10/16 07:41:04;;;;;;;2.23;2.00;;;14.00;99.90;;;;;;5081657;28;20213;-90
2022/10/16 07:43:32;;;;;;;3.80;2.53;;;14.10;99.90;;;;;;5068389;28;20198;-85
2022/10/16 07:46:00;;;;;;;4.77;2.43;;;14.10;99.90;;;;;;5064801;28;20199;-88
2022/10/16 07:48:31;;;;;;;3.10;2.17;;;14.20;99.90;;;;;;5077213;28;20556;-85
2022/10/16 07:50:59;;;;;;;3.27;1.90;;;14.30;99.90;;;;;;5076465;28;20233;-90
2022/10/16 07:53:26;;;;;;;2.97;2.10;;;14.30;99.90;;;;;;5075464;28;20202;-87
2022/10/16 07:55:53;;;;;;;3.10;2.20;;;14.30;99.90;;;;;;5065612;28;20200;-85
2022/10/16 07:58:22;;;;;;;2.77;2.50;;;14.30;99.90;;;;;;5058584;28;20237;-89
2022/10/16 08:00:49;;;;;;;3.13;2.37;;;14.40;99.90;;;;;;5077145;28;20205;-85
2022/10/16 08:03:17;;;;;;;3.93;2.00;;;14.40;99.90;;;;;;5077285;28;20206;-84
2022/10/16 08:05:43;;;;;;;4.70;3.80;;;14.40;99.90;;;;;;5076926;28;20198;-88
2022/10/16 08:08:13;;;;;;;8.20;5.57;;;14.50;99.90;;;;;;5076543;28;20440;-88
2022/10/16 08:10:40;;;;;;;2.30;2.17;;;14.60;99.90;;;;;;5076982;28;20206;-89
2022/10/16 08:13:07;;;;;;;4.70;2.00;;;14.60;99.90;;;;;;5076471;28;20196;-84
2022/10/16 08:15:34;;;;;;;5.70;2.53;;;14.70;99.90;;;;;;5073276;28;20202;-84
2022/10/16 08:18:03;;;;;;;6.57;2.03;;;14.70;99.90;;;;;;5062250;28;20213;-86
2022/10/16 08:20:33;;;;;;;3.63;2.17;;;14.80;99.90;;;;;;5060219;28;20666;-87
2022/10/16 08:23:00;;;;;;;4.60;3.03;;;14.80;99.90;;;;;;5069427;28;20203;-88
2022/10/16 08:25:27;;;;;;;5.87;2.80;;;14.90;99.90;;;;;;5067106;28;20184;-87
2022/10/16 08:27:54;;;;;;;2.03;1.90;;;14.90;99.90;;;;;;5067899;28;20199;-85
2022/10/16 08:30:23;;;;;;;8.40;2.43;;;15.00;99.90;;;;;;5059557;28;20203;-88
2022/10/16 08:32:50;;;;;;;2.90;1.70;;;15.10;99.90;;;;;;5060601;28;20236;-90
2022/10/16 08:35:17;;;;;;;4.13;1.73;;;15.10;99.90;;;;;;5063396;28;20559;-87
2022/10/16 08:37:45;;;;;;;3.00;1.80;;;15.30;99.90;;;;;;5063044;28;20199;-87
2022/10/16 08:40:19;;;;;;;2.60;1.90;;;15.30;99.90;;;;;;5060250;28;20208;-83
2022/10/16 08:43:16;;;;;;;2.83;1.77;;;15.30;99.90;;;;;;5059391;28;20289;-84
2022/10/16 08:45:59;;;;;;;5.13;1.83;;;15.30;99.90;;;;;;5074968;28;20220;-84
2022/10/16 08:48:31;;;;;;;8.53;1.80;;;15.40;99.90;;;;;;5077924;28;20204;-84
2022/10/16 08:50:58;;;;;;;3.87;1.80;;;15.50;99.90;;;;;;5078708;28;20230;-91
2022/10/16 08:53:30;;;;;;;7.40;2.23;;;15.50;99.90;;;;;;5080588;28;20208;-88
2022/10/16 08:55:58;;;;;;;5.03;2.03;;;15.50;99.90;;;;;;5070393;28;20199;-88
2022/10/16 08:58:30;;;;;;;6.97;2.07;;;15.60;99.90;;;;;;5061344;28;20216;-88
2022/10/16 09:00:59;;;;;;;4.20;1.63;;;15.70;99.90;;;;;;5061793;28;20204;-85
2022/10/16 09:03:41;;;;;;;4.60;2.00;;;15.70;99.90;;;;;;5056784;28;20566;-85
2022/10/16 09:06:20;;;;;;;3.93;1.80;;;15.70;99.90;;;;;;5063668;28;20197;-86
2022/10/16 09:09:00;;;;;;;4.03;1.80;;;15.70;99.90;;;;;;5076525;28;20259;-88
2022/10/16 09:11:39;;;;;;;4.40;1.93;;;15.80;99.90;;;;;;5064952;28;20226;-86
2022/10/16 09:14:16;;;;;;;4.23;1.53;;;15.90;99.90;;;;;;5059698;28;20225;-89
2022/10/16 09:16:52;;;;;;;3.43;1.90;;;15.80;99.90;;;;;;5058506;28;20205;-88
2022/10/16 09:19:23;;;;;;;4.07;2.03;;;15.90;99.90;;;;;;5058386;28;20684;-84
2022/10/16 09:21:51;;;;;;;2.23;1.50;;;16.00;99.90;;;;;;5062362;28;20539;-84
2022/10/16 09:24:21;;;;;;;5.37;1.80;;;16.20;99.90;;;;;;5067181;28;20194;-85
2022/10/16 09:26:48;;;;;;;6.77;2.60;;;16.30;99.90;;;;;;5056309;28;20188;-90
2022/10/16 09:29:16;;;;;;;5.63;1.60;;;16.30;99.90;;;;;;5070116;28;20285;-89
2022/10/16 09:31:43;;;;;;;4.30;1.70;;;16.20;99.90;;;;;;5065080;28;20705;-87
2022/10/16 09:34:21;;;;;;;3.47;1.67;;;16.40;99.90;;;;;;5080940;28;20202;-85
2022/10/16 09:36:48;;;;;;;6.73;1.83;;;16.30;99.90;;;;;;5076688;28;20203;-85
2022/10/16 09:39:15;;;;;;;3.63;1.30;;;16.30;99.90;;;;;;5079536;28;20190;-89
2022/10/16 09:41:45;;;;;;;3.83;1.60;;;16.40;99.90;;;;;;5077876;28;20199;-84
2022/10/16 09:44:22;;;;;;;3.57;1.50;;;16.50;99.90;;;;;;5076934;28;20200;-88
2022/10/16 09:46:49;;;;;;;3.17;1.40;;;16.60;99.90;;;;;;5077196;28;20205;-88
2022/10/16 09:49:24;;;;;;;3.90;1.30;;;16.70;99.90;;;;;;5076683;28;20221;-87
2022/10/16 09:51:53;;;;;;;5.87;1.73;;;16.60;99.90;;;;;;5076867;28;20240;-89
2022/10/16 09:54:21;;;;;;;5.57;1.60;;;16.70;99.90;;;;;;5077199;28;20255;-89
2022/10/16 09:56:51;;;;;;;3.93;1.40;;;16.70;99.90;;;;;;5077687;28;20232;-89
2022/10/16 09:59:20;;;;;;;4.90;1.67;;;16.70;99.90;;;;;;5075430;28;20229;-87
2022/10/16 10:01:49;;;;;;;4.90;2.00;;;16.70;99.90;;;;;;5076671;28;20207;-89
2022/10/16 10:04:16;;;;;;;5.65;1.77;;;16.60;99.90;;;;;;5078761;28;20451;-84
2022/10/16 10:06:46;;;;;;;4.33;1.67;;;16.70;99.90;;;;;;5079769;28;20203;-87
2022/10/16 10:09:20;;;;;;;4.50;1.63;;;16.80;99.90;;;;;;5077145;28;20208;-84
2022/10/16 10:11:52;;;;;;;4.00;1.60;;;16.90;99.90;;;;;;5075592;28;20289;-86
2022/10/16 10:14:23;;;;;;;5.93;1.97;;;17.10;99.90;;;;;;5075171;28;20216;-91
2022/10/16 10:16:51;;;;;;;2.13;1.30;;;17.00;99.90;;;;;;5074676;28;20210;-87
2022/10/16 10:19:19;;;;;;;3.63;1.73;;;17.00;99.90;;;;;;5074968;28;20204;-87
2022/10/16 10:21:46;;;;;;;5.20;1.80;;;17.00;99.90;;;;;;5074186;28;20205;-84
2022/10/16 10:24:14;;;;;;;3.10;1.57;;;17.10;99.90;;;;;;5074678;28;20187;-89
2022/10/16 10:26:51;;;;;;;5.50;2.00;;;17.10;99.90;;;;;;5073642;28;20247;-87
2022/10/16 10:29:27;;;;;;;5.50;2.10;;;17.20;99.90;;;;;;5074293;28;20550;-86
2022/10/16 10:32:09;;;;;;;3.60;1.50;;;17.20;99.90;;;;;;5074713;28;20255;-89
2022/10/16 10:34:57;;;;;;;3.80;1.57;;;17.40;99.90;;;;;;5077163;28;20217;-89
2022/10/16 10:37:47;;;;;;;5.77;1.73;;;17.40;99.90;;;;;;5075230;28;20241;-89
2022/10/16 10:40:28;;;;;;;3.17;1.60;;;17.60;99.90;;;;;;5075277;28;20671;-90
2022/10/16 10:43:05;;;;;;;9.63;1.43;;;17.80;99.90;;;;;;5075042;28;20215;-88
2022/10/16 10:45:42;;;;;;;5.13;1.70;;;17.90;99.90;;;;;;5074569;28;20212;-89
2022/10/16 10:48:35;;;;;;;4.33;1.70;;;17.90;99.90;;;;;;5076466;28;20202;-89
2022/10/16 10:51:06;;;;;;;4.43;1.57;;;17.90;99.90;;;;;;5076224;28;20224;-89
2022/10/16 10:53:45;;;;;;;3.50;1.37;;;17.80;99.90;;;;;;5076726;28;20716;-89
2022/10/16 10:56:22;;;;;;;4.23;1.30;;;17.80;99.90;;;;;;5077330;28;20216;-89
2022/10/16 10:59:29;;;;;;;5.63;1.97;;;17.90;99.90;;;;;;5074082;28;20228;-89
2022/10/16 11:02:00;;;;;;;4.80;1.50;;;18.10;99.90;;;;;;5053920;28;20217;-90
2022/10/16 11:04:53;;;;;;;2.83;1.47;;;18.00;99.90;;;;;;5074128;28;20197;-87
2022/10/16 11:07:25;;;;;;;5.23;1.40;;;18.10;99.90;;;;;;5073574;28;20198;-83
2022/10/16 11:09:57;;;;;;;3.13;1.87;;;18.10;99.90;;;;;;5069956;28;20213;-84
2022/10/16 11:12:43;;;;;;;3.93;1.50;;;18.10;99.90;;;;;;5076618;28;20237;-89
2022/10/16 11:15:25;;;;;;;3.77;1.13;;;18.10;99.90;;;;;;5081607;28;20201;-88
2022/10/16 11:18:05;;;;;;;3.83;1.40;;;18.20;99.90;;;;;;5080588;28;20228;-89
2022/10/16 11:20:47;;;;;;;5.30;1.93;;;18.30;99.90;;;;;;5078697;28;20209;-89
2022/10/16 11:23:21;;;;;;;3.37;1.30;;;18.40;99.90;;;;;;5078526;28;20194;-89
2022/10/16 11:25:50;;;;;;;3.13;1.17;;;18.50;99.90;;;;;;5078468;28;20198;-90
2022/10/16 11:28:20;;;;;;;3.23;1.33;;;18.50;99.90;;;;;;5078799;28;20308;-90
2022/10/16 11:30:52;;;;;;;2.73;1.00;;;18.60;99.90;;;;;;5079484;28;20251;-91
2022/10/16 11:33:34;;;;;;;6.73;1.83;;;18.60;99.90;;;;;;5078312;28;20218;-90
2022/10/16 11:36:09;;;;;;;4.60;1.47;;;18.70;99.90;;;;;;5078306;28;20201;-90
2022/10/16 11:38:45;;;;;;;3.47;1.70;;;18.50;99.90;;;;;;5077970;28;20186;-89
2022/10/16 11:41:20;;;;;;;5.10;1.77;;;18.50;99.90;;;;;;5078728;28;20189;-88
2022/10/16 11:44:07;;;;;;;3.37;1.30;;;18.70;99.90;;;;;;5078183;28;20268;-89
2022/10/16 11:46:40;;;;;;;6.40;1.60;;;18.80;99.90;;;;;;5083878;28;20197;-86
2022/10/16 11:49:13;;;;;;;2.90;1.30;;;18.90;99.90;;;;;;5086244;28;20205;-88
2022/10/16 11:51:43;;;;;;;6.20;1.27;;;18.90;99.90;;;;;;5078159;28;20198;-91
2022/10/16 11:54:25;;;;;;;1.87;1.40;;;18.90;99.90;;;;;;5077558;28;20192;-90
2022/10/16 11:57:03;;;;;;;3.03;1.17;;;19.10;99.90;;;;;;5078238;28;20675;-89
2022/10/16 11:59:35;;;;;;;6.10;1.77;;;19.10;99.90;;;;;;5078467;28;20253;-90
2022/10/16 12:02:36;;;;;;;5.63;1.30;;;19.10;99.90;;;;;;5078053;28;20194;-89
2022/10/16 12:05:20;;;;;;;7.60;1.57;;;19.20;99.90;;;;;;5078101;28;20205;-90
2022/10/16 12:07:55;;;;;;;3.10;1.37;;;19.30;99.90;;;;;;5077397;28;20190;-87
2022/10/16 12:10:24;;;;;;;3.37;1.50;;;19.10;99.90;;;;;;5077712;28;20197;-90
2022/10/16 12:12:56;;;;;;;3.37;1.40;;;19.00;99.90;;;;;;5077267;28;20669;-89
2022/10/16 12:15:27;;;;;;;6.00;1.50;;;18.90;99.90;;;;;;5067494;28;20205;-91
2022/10/16 12:17:57;;;;;;;6.73;1.80;;;19.00;99.90;;;;;;5057512;28;20203;-89
2022/10/16 12:20:27;;;;;;;3.63;1.40;;;19.00;99.90;;;;;;5060570;28;20209;-87
2022/10/16 12:22:56;;;;;;;4.10;1.47;;;19.20;99.90;;;;;;5056950;28;20656;-89
2022/10/16 12:25:32;;;;;;;2.60;1.20;;;19.40;99.90;;;;;;5057841;28;20212;-86
2022/10/16 12:28:01;;;;;;;4.03;1.77;;;19.60;99.90;;;;;;5056422;28;20236;-82
2022/10/16 12:30:31;;;;;;;4.60;1.27;;;19.70;99.90;;;;;;5059734;28;20202;-87
2022/10/16 12:33:01;;;;;;;4.40;1.60;;;19.70;99.90;;;;;;5056993;28;20229;-88
2022/10/16 12:35:34;;;;;;;3.43;1.50;;;19.80;99.90;;;;;;5063841;28;20193;-88
2022/10/16 12:38:14;;;;;;;3.53;1.27;;;19.60;99.90;;;;;;5075527;28;20209;-84
2022/10/16 12:40:42;;;;;;;1.73;1.00;;;19.50;99.90;;;;;;5075798;28;20255;-84
2022/10/16 12:43:24;;;;;;;1.40;1.30;;;19.30;99.90;;;;;;5067423;28;20207;-84
2022/10/16 12:46:01;;;;;;;4.40;1.33;;;19.30;99.90;;;;;;5065245;28;20190;-86
2022/10/16 12:48:29;;;;;;;3.70;1.20;;;19.10;99.90;;;;;;5055029;28;20203;-84
2022/10/16 12:50:56;;;;;;;2.10;1.20;;;19.10;99.90;;;;;;5054145;28;20210;-84
2022/10/16 12:53:26;;;;;;;2.47;1.20;;;19.10;99.90;;;;;;5054800;28;20237;-84
2022/10/16 12:56:01;;;;;;;2.77;1.10;;;19.30;99.90;;;;;;5054854;28;20194;-84
2022/10/16 12:58:44;;;;;;;1.53;1.00;;;19.40;99.90;;;;;;5057442;28;20217;-83
2022/10/16 13:01:25;;;;;;;4.73;1.10;;;19.40;99.90;;;;;;5068181;28;20209;-84
2022/10/16 13:04:19;;;;;;;1.47;1.00;;;19.30;99.90;;;;;;5074849;28;20196;-84
2022/10/16 13:06:52;;;;;;;2.73;1.20;;;19.40;99.90;;;;;;5074747;28;20214;-84
2022/10/16 13:09:31;;;;;;;1.23;1.00;;;19.70;99.90;;;;;;5074910;28;20205;-84